Carlisle, Iowa
Current Conditions -  °F | °C
As of 9:54 AM on Monday 24 Nov 2014 (Local Time) from KDSM Reporting Station
Overcast Overcast  
Wind Chill: 12°   Ceiling: 2400
Heat Index: 27°   Visibility: 10mi
Dew Point: 17°   Wind: 23mph
Humidity: 66%   Direction: 310°NW
Pressure: 29.58"   Gusts: 35mph
Location:  41.5°N, 93.49°W
Report Text: KDSM 241554Z 31020G30KT 10SM OVC024 M03/M08 A2958 RMK AO2 PK WND 31032/1525 SLP023 T10281083
Loading
Personal Weather Stations






























Interactive Weather Map New forecast layout! Learn more

10-Day Weather Forecast

Advertisements
Track Severe Weather on mobile